sensor_id;sensor_type;location;lat;lon;timestamp;P1;durP1;ratioP1;P2;durP2;ratioP2
15624;SDS011;7912;51.376;6.126;2023-09-12T00:00:15;16.03;;;14.17;;
15624;SDS011;7912;51.376;6.126;2023-09-12T00:03:07;15.90;;;13.63;;
15624;SDS011;7912;51.376;6.126;2023-09-12T00:05:56;18.23;;;15.73;;
15624;SDS011;7912;51.376;6.126;2023-09-12T00:08:45;18.27;;;16.47;;
15624;SDS011;7912;51.376;6.126;2023-09-12T00:14:57;20.60;;;18.50;;
15624;SDS011;7912;51.376;6.126;2023-09-12T00:17:46;21.47;;;18.80;;
15624;SDS011;7912;51.376;6.126;2023-09-12T00:20:41;19.60;;;17.37;;
15624;SDS011;7912;51.376;6.126;2023-09-12T00:23:21;21.53;;;19.30;;
15624;SDS011;7912;51.376;6.126;2023-09-12T00:26:51;24.10;;;21.53;;
15624;SDS011;7912;51.376;6.126;2023-09-12T00:30:23;25.20;;;21.83;;
15624;SDS011;7912;51.376;6.126;2023-09-12T00:33:08;25.67;;;23.00;;
15624;SDS011;7912;51.376;6.126;2023-09-12T00:38:48;27.33;;;24.33;;
15624;SDS011;7912;51.376;6.126;2023-09-12T00:41:17;28.77;;;25.77;;
15624;SDS011;7912;51.376;6.126;2023-09-12T00:44:33;28.90;;;25.77;;
15624;SDS011;7912;51.376;6.126;2023-09-12T00:47:41;28.00;;;24.97;;
15624;SDS011;7912;51.376;6.126;2023-09-12T00:50:28;26.80;;;23.90;;
15624;SDS011;7912;51.376;6.126;2023-09-12T00:53:10;27.37;;;24.47;;
15624;SDS011;7912;51.376;6.126;2023-09-12T00:56:21;25.17;;;22.50;;
15624;SDS011;7912;51.376;6.126;2023-09-12T00:59:08;29.57;;;23.90;;
15624;SDS011;7912;51.376;6.126;2023-09-12T01:02:06;28.27;;;24.33;;
15624;SDS011;7912;51.376;6.126;2023-09-12T01:04:51;41.93;;;37.27;;
15624;SDS011;7912;51.376;6.126;2023-09-12T01:07:43;37.53;;;33.43;;
15624;SDS011;7912;51.376;6.126;2023-09-12T01:10:56;28.27;;;25.17;;
15624;SDS011;7912;51.376;6.126;2023-09-12T01:17:58;24.80;;;18.57;;
15624;SDS011;7912;51.376;6.126;2023-09-12T01:34:17;17.27;;;15.13;;
15624;SDS011;7912;51.376;6.126;2023-09-12T01:38:05;16.17;;;14.53;;
15624;SDS011;7912;51.376;6.126;2023-09-12T01:40:40;20.53;;;17.53;;
15624;SDS011;7912;51.376;6.126;2023-09-12T01:43:24;19.60;;;17.50;;
15624;SDS011;7912;51.376;6.126;2023-09-12T01:45:54;21.07;;;17.17;;
15624;SDS011;7912;51.376;6.126;2023-09-12T01:48:26;17.93;;;15.60;;
15624;SDS011;7912;51.376;6.126;2023-09-12T01:51:03;19.70;;;17.37;;
15624;SDS011;7912;51.376;6.126;2023-09-12T01:53:32;21.27;;;19.00;;
15624;SDS011;7912;51.376;6.126;2023-09-12T01:56:02;20.27;;;17.53;;
15624;SDS011;7912;51.376;6.126;2023-09-12T01:58:29;21.67;;;19.03;;
15624;SDS011;7912;51.376;6.126;2023-09-12T02:00:58;19.77;;;17.70;;
15624;SDS011;7912;51.376;6.126;2023-09-12T02:03:25;20.27;;;18.07;;
15624;SDS011;7912;51.376;6.126;2023-09-12T02:09:18;18.10;;;15.87;;
15624;SDS011;7912;51.376;6.126;2023-09-12T02:11:46;20.90;;;18.70;;
15624;SDS011;7912;51.376;6.126;2023-09-12T02:14:15;21.90;;;19.63;;
15624;SDS011;7912;51.376;6.126;2023-09-12T02:22:59;21.50;;;19.30;;
15624;SDS011;7912;51.376;6.126;2023-09-12T02:25:26;25.40;;;21.97;;
15624;SDS011;7912;51.376;6.126;2023-09-12T02:27:57;26.13;;;22.40;;
15624;SDS011;7912;51.376;6.126;2023-09-12T02:30:24;25.67;;;21.83;;
15624;SDS011;7912;51.376;6.126;2023-09-12T02:36:02;26.60;;;23.27;;
15624;SDS011;7912;51.376;6.126;2023-09-12T02:39:31;28.23;;;22.60;;
15624;SDS011;7912;51.376;6.126;2023-09-12T02:42:05;21.93;;;19.57;;
15624;SDS011;7912;51.376;6.126;2023-09-12T02:44:33;23.73;;;20.37;;
15624;SDS011;7912;51.376;6.126;2023-09-12T02:50:51;19.00;;;16.97;;
15624;SDS011;7912;51.376;6.126;2023-09-12T02:56:32;19.23;;;17.17;;
15624;SDS011;7912;51.376;6.126;2023-09-12T03:03:14;23.03;;;20.50;;
15624;SDS011;7912;51.376;6.126;2023-09-12T03:05:43;23.17;;;20.17;;
15624;SDS011;7912;51.376;6.126;2023-09-12T03:12:10;22.33;;;19.63;;
15624;SDS011;7912;51.376;6.126;2023-09-12T03:14:37;20.17;;;17.43;;
15624;SDS011;7912;51.376;6.126;2023-09-12T03:17:05;22.63;;;20.13;;
15624;SDS011;7912;51.376;6.126;2023-09-12T03:22:26;21.03;;;18.73;;
15624;SDS011;7912;51.376;6.126;2023-09-12T03:24:54;20.77;;;18.67;;
15624;SDS011;7912;51.376;6.126;2023-09-12T03:27:34;22.70;;;20.30;;
15624;SDS011;7912;51.376;6.126;2023-09-12T03:31:18;20.43;;;18.30;;
15624;SDS011;7912;51.376;6.126;2023-09-12T03:33:46;22.90;;;20.43;;
15624;SDS011;7912;51.376;6.126;2023-09-12T03:36:17;22.80;;;20.37;;
15624;SDS011;7912;51.376;6.126;2023-09-12T03:38:44;22.63;;;20.33;;
15624;SDS011;7912;51.376;6.126;2023-09-12T03:41:15;23.60;;;20.17;;
15624;SDS011;7912;51.376;6.126;2023-09-12T03:47:24;20.73;;;17.90;;
15624;SDS011;7912;51.376;6.126;2023-09-12T03:49:52;20.97;;;17.60;;
15624;SDS011;7912;51.376;6.126;2023-09-12T03:52:22;23.73;;;19.80;;
15624;SDS011;7912;51.376;6.126;2023-09-12T03:55:22;22.17;;;19.37;;
15624;SDS011;7912;51.376;6.126;2023-09-12T03:57:56;23.13;;;20.57;;
15624;SDS011;7912;51.376;6.126;2023-09-12T04:07:44;18.17;;;16.23;;
15624;SDS011;7912;51.376;6.126;2023-09-12T04:10:12;23.10;;;18.47;;
15624;SDS011;7912;51.376;6.126;2023-09-12T04:12:40;22.87;;;19.20;;
15624;SDS011;7912;51.376;6.126;2023-09-12T04:20:20;20.67;;;18.13;;
15624;SDS011;7912;51.376;6.126;2023-09-12T04:22:52;23.00;;;18.47;;
15624;SDS011;7912;51.376;6.126;2023-09-12T04:28:52;21.60;;;17.90;;
15624;SDS011;7912;51.376;6.126;2023-09-12T04:31:19;18.70;;;16.33;;
15624;SDS011;7912;51.376;6.126;2023-09-12T04:33:47;19.67;;;17.57;;
15624;SDS011;7912;51.376;6.126;2023-09-12T04:36:16;20.87;;;18.33;;
15624;SDS011;7912;51.376;6.126;2023-09-12T04:38:44;20.03;;;17.93;;
15624;SDS011;7912;51.376;6.126;2023-09-12T04:41:16;19.67;;;17.60;;
15624;SDS011;7912;51.376;6.126;2023-09-12T04:44:00;19.80;;;17.67;;
15624;SDS011;7912;51.376;6.126;2023-09-12T04:47:12;18.70;;;16.63;;
15624;SDS011;7912;51.376;6.126;2023-09-12T04:49:49;21.60;;;19.27;;
15624;SDS011;7912;51.376;6.126;2023-09-12T04:52:34;20.43;;;17.77;;
15624;SDS011;7912;51.376;6.126;2023-09-12T04:55:38;17.23;;;15.43;;
15624;SDS011;7912;51.376;6.126;2023-09-12T04:58:38;18.30;;;16.50;;
15624;SDS011;7912;51.376;6.126;2023-09-12T05:05:04;18.00;;;15.67;;
15624;SDS011;7912;51.376;6.126;2023-09-12T05:08:07;20.07;;;17.27;;
15624;SDS011;7912;51.376;6.126;2023-09-12T05:11:52;17.50;;;15.70;;
15624;SDS011;7912;51.376;6.126;2023-09-12T05:14:39;21.73;;;17.93;;
15624;SDS011;7912;51.376;6.126;2023-09-12T05:21:46;16.77;;;15.07;;
15624;SDS011;7912;51.376;6.126;2023-09-12T05:24:20;19.03;;;17.00;;
15624;SDS011;7912;51.376;6.126;2023-09-12T05:26:59;19.57;;;17.47;;
15624;SDS011;7912;51.376;6.126;2023-09-12T05:29:26;20.70;;;17.37;;
15624;SDS011;7912;51.376;6.126;2023-09-12T05:31:54;20.33;;;18.17;;
15624;SDS011;7912;51.376;6.126;2023-09-12T05:34:23;20.37;;;18.17;;
15624;SDS011;7912;51.376;6.126;2023-09-12T05:37:05;21.27;;;19.03;;
15624;SDS011;7912;51.376;6.126;2023-09-12T05:39:50;22.80;;;18.40;;
15624;SDS011;7912;51.376;6.126;2023-09-12T05:42:21;20.60;;;18.57;;
15624;SDS011;7912;51.376;6.126;2023-09-12T05:44:49;20.63;;;18.20;;
15624;SDS011;7912;51.376;6.126;2023-09-12T05:58:54;20.10;;;17.87;;
15624;SDS011;7912;51.376;6.126;2023-09-12T06:01:22;20.47;;;18.30;;
15624;SDS011;7912;51.376;6.126;2023-09-12T06:03:49;21.90;;;19.10;;
15624;SDS011;7912;51.376;6.126;2023-09-12T06:09:22;18.90;;;17.00;;
15624;SDS011;7912;51.376;6.126;2023-09-12T06:11:50;21.70;;;19.30;;
15624;SDS011;7912;51.376;6.126;2023-09-12T06:14:21;22.20;;;19.80;;
15624;SDS011;7912;51.376;6.126;2023-09-12T06:16:48;21.07;;;18.60;;
15624;SDS011;7912;51.376;6.126;2023-09-12T06:19:16;21.80;;;18.97;;
15624;SDS011;7912;51.376;6.126;2023-09-12T06:21:46;21.17;;;18.97;;
15624;SDS011;7912;51.376;6.126;2023-09-12T06:24:19;22.43;;;19.87;;
15624;SDS011;7912;51.376;6.126;2023-09-12T06:26:50;22.33;;;18.93;;
15624;SDS011;7912;51.376;6.126;2023-09-12T06:29:19;22.17;;;19.73;;
15624;SDS011;7912;51.376;6.126;2023-09-12T06:31:48;24.40;;;21.13;;
15624;SDS011;7912;51.376;6.126;2023-09-12T06:34:18;21.07;;;18.27;;
15624;SDS011;7912;51.376;6.126;2023-09-12T06:36:48;24.10;;;20.50;;
15624;SDS011;7912;51.376;6.126;2023-09-12T06:39:20;21.57;;;19.27;;
15624;SDS011;7912;51.376;6.126;2023-09-12T06:41:50;23.83;;;20.17;;
15624;SDS011;7912;51.376;6.126;2023-09-12T06:44:22;23.57;;;20.10;;
15624;SDS011;7912;51.376;6.126;2023-09-12T06:46:55;25.60;;;21.40;;
15624;SDS011;7912;51.376;6.126;2023-09-12T06:49:29;24.27;;;20.80;;
15624;SDS011;7912;51.376;6.126;2023-09-12T06:52:01;24.27;;;20.67;;
15624;SDS011;7912;51.376;6.126;2023-09-12T06:54:29;21.17;;;18.97;;
15624;SDS011;7912;51.376;6.126;2023-09-12T06:59:43;23.80;;;19.37;;
15624;SDS011;7912;51.376;6.126;2023-09-12T07:03:04;23.07;;;19.53;;
15624;SDS011;7912;51.376;6.126;2023-09-12T07:06:29;23.57;;;20.23;;
15624;SDS011;7912;51.376;6.126;2023-09-12T07:09:10;24.50;;;21.17;;
15624;SDS011;7912;51.376;6.126;2023-09-12T07:11:47;22.67;;;20.10;;
15624;SDS011;7912;51.376;6.126;2023-09-12T07:14:14;23.60;;;19.73;;
15624;SDS011;7912;51.376;6.126;2023-09-12T07:16:48;22.13;;;19.77;;
15624;SDS011;7912;51.376;6.126;2023-09-12T07:19:38;20.43;;;18.30;;
15624;SDS011;7912;51.376;6.126;2023-09-12T07:22:08;23.83;;;20.60;;
15624;SDS011;7912;51.376;6.126;2023-09-12T07:24:36;23.07;;;20.03;;
15624;SDS011;7912;51.376;6.126;2023-09-12T07:27:03;22.83;;;19.07;;
15624;SDS011;7912;51.376;6.126;2023-09-12T07:29:31;23.10;;;20.17;;
15624;SDS011;7912;51.376;6.126;2023-09-12T07:32:13;21.83;;;19.37;;
15624;SDS011;7912;51.376;6.126;2023-09-12T07:34:50;21.07;;;18.70;;
15624;SDS011;7912;51.376;6.126;2023-09-12T07:37:27;22.47;;;20.00;;
15624;SDS011;7912;51.376;6.126;2023-09-12T07:40:05;24.13;;;21.50;;
15624;SDS011;7912;51.376;6.126;2023-09-12T07:42:38;21.30;;;18.97;;
15624;SDS011;7912;51.376;6.126;2023-09-12T07:45:07;20.53;;;18.37;;
15624;SDS011;7912;51.376;6.126;2023-09-12T07:47:35;25.10;;;20.00;;
15624;SDS011;7912;51.376;6.126;2023-09-12T07:50:03;23.50;;;19.97;;
15624;SDS011;7912;51.376;6.126;2023-09-12T07:52:33;23.27;;;20.57;;
15624;SDS011;7912;51.376;6.126;2023-09-12T07:55:01;24.33;;;20.03;;
15624;SDS011;7912;51.376;6.126;2023-09-12T07:57:30;20.67;;;18.53;;
15624;SDS011;7912;51.376;6.126;2023-09-12T07:59:58;20.13;;;18.13;;
15624;SDS011;7912;51.376;6.126;2023-09-12T08:02:26;23.70;;;21.03;;
15624;SDS011;7912;51.376;6.126;2023-09-12T08:04:54;19.70;;;17.40;;
15624;SDS011;7912;51.376;6.126;2023-09-12T08:07:21;25.90;;;21.20;;
15624;SDS011;7912;51.376;6.126;2023-09-12T08:09:55;26.43;;;22.87;;
15624;SDS011;7912;51.376;6.126;2023-09-12T08:12:25;26.53;;;21.97;;
15624;SDS011;7912;51.376;6.126;2023-09-12T08:14:54;27.30;;;22.73;;
15624;SDS011;7912;51.376;6.126;2023-09-12T08:17:22;24.87;;;22.13;;
15624;SDS011;7912;51.376;6.126;2023-09-12T08:19:50;25.77;;;22.00;;
15624;SDS011;7912;51.376;6.126;2023-09-12T08:26:02;26.27;;;23.37;;
15624;SDS011;7912;51.376;6.126;2023-09-12T08:28:34;26.90;;;24.10;;
15624;SDS011;7912;51.376;6.126;2023-09-12T08:31:02;25.83;;;23.03;;
15624;SDS011;7912;51.376;6.126;2023-09-12T08:33:29;28.80;;;24.37;;
15624;SDS011;7912;51.376;6.126;2023-09-12T08:35:59;25.97;;;23.07;;
15624;SDS011;7912;51.376;6.126;2023-09-12T08:38:26;26.93;;;23.77;;
15624;SDS011;7912;51.376;6.126;2023-09-12T08:40:54;29.80;;;24.77;;
15624;SDS011;7912;51.376;6.126;2023-09-12T08:43:24;27.13;;;24.10;;
15624;SDS011;7912;51.376;6.126;2023-09-12T08:45:55;25.87;;;23.07;;
15624;SDS011;7912;51.376;6.126;2023-09-12T08:48:23;25.33;;;22.63;;
15624;SDS011;7912;51.376;6.126;2023-09-12T08:50:58;20.70;;;18.57;;
15624;SDS011;7912;51.376;6.126;2023-09-12T08:53:59;19.40;;;17.40;;
15624;SDS011;7912;51.376;6.126;2023-09-12T08:56:32;17.90;;;16.00;;
15624;SDS011;7912;51.376;6.126;2023-09-12T08:59:06;17.93;;;16.13;;
15624;SDS011;7912;51.376;6.126;2023-09-12T09:01:35;17.37;;;15.57;;
15624;SDS011;7912;51.376;6.126;2023-09-12T09:04:05;16.03;;;14.43;;
15624;SDS011;7912;51.376;6.126;2023-09-12T09:06:34;17.40;;;15.70;;
15624;SDS011;7912;51.376;6.126;2023-09-12T09:09:12;17.47;;;15.67;;
15624;SDS011;7912;51.376;6.126;2023-09-12T09:11:43;18.47;;;16.57;;
15624;SDS011;7912;51.376;6.126;2023-09-12T09:14:12;15.77;;;14.17;;
15624;SDS011;7912;51.376;6.126;2023-09-12T09:16:41;18.07;;;16.33;;
15624;SDS011;7912;51.376;6.126;2023-09-12T09:19:10;18.97;;;17.03;;
15624;SDS011;7912;51.376;6.126;2023-09-12T09:21:49;19.23;;;17.13;;
15624;SDS011;7912;51.376;6.126;2023-09-12T09:24:20;19.77;;;17.77;;
15624;SDS011;7912;51.376;6.126;2023-09-12T09:26:49;15.03;;;13.53;;
15624;SDS011;7912;51.376;6.126;2023-09-12T09:29:30;15.00;;;13.50;;
15624;SDS011;7912;51.376;6.126;2023-09-12T09:32:00;17.70;;;15.93;;
15624;SDS011;7912;51.376;6.126;2023-09-12T09:34:43;16.37;;;14.77;;
15624;SDS011;7912;51.376;6.126;2023-09-12T09:37:11;12.77;;;11.57;;
15624;SDS011;7912;51.376;6.126;2023-09-12T09:42:19;15.47;;;13.87;;
15624;SDS011;7912;51.376;6.126;2023-09-12T09:44:47;18.17;;;16.47;;
15624;SDS011;7912;51.376;6.126;2023-09-12T09:47:17;18.13;;;16.33;;
15624;SDS011;7912;51.376;6.126;2023-09-12T09:49:46;19.90;;;17.97;;
15624;SDS011;7912;51.376;6.126;2023-09-12T09:52:24;19.07;;;17.27;;
15624;SDS011;7912;51.376;6.126;2023-09-12T09:54:58;19.10;;;17.27;;
15624;SDS011;7912;51.376;6.126;2023-09-12T09:57:25;17.97;;;16.27;;
15624;SDS011;7912;51.376;6.126;2023-09-12T10:00:02;16.17;;;14.60;;
15624;SDS011;7912;51.376;6.126;2023-09-12T10:02:35;14.40;;;13.10;;
15624;SDS011;7912;51.376;6.126;2023-09-12T10:08:03;17.17;;;15.53;;
15624;SDS011;7912;51.376;6.126;2023-09-12T10:10:37;15.73;;;13.70;;
15624;SDS011;7912;51.376;6.126;2023-09-12T10:13:06;13.67;;;12.37;;
15624;SDS011;7912;51.376;6.126;2023-09-12T10:22:32;17.60;;;16.00;;
15624;SDS011;7912;51.376;6.126;2023-09-12T10:25:07;18.17;;;16.37;;
15624;SDS011;7912;51.376;6.126;2023-09-12T10:27:36;15.80;;;14.40;;
15624;SDS011;7912;51.376;6.126;2023-09-12T10:30:05;18.17;;;16.47;;
15624;SDS011;7912;51.376;6.126;2023-09-12T10:32:35;17.80;;;16.00;;
15624;SDS011;7912;51.376;6.126;2023-09-12T10:35:03;16.67;;;15.17;;
15624;SDS011;7912;51.376;6.126;2023-09-12T10:37:38;17.80;;;16.10;;
15624;SDS011;7912;51.376;6.126;2023-09-12T10:40:11;18.47;;;16.60;;
15624;SDS011;7912;51.376;6.126;2023-09-12T10:42:42;16.43;;;14.90;;
15624;SDS011;7912;51.376;6.126;2023-09-12T10:45:11;15.93;;;14.43;;
15624;SDS011;7912;51.376;6.126;2023-09-12T10:47:40;15.70;;;14.20;;
15624;SDS011;7912;51.376;6.126;2023-09-12T10:50:08;14.30;;;12.90;;
15624;SDS011;7912;51.376;6.126;2023-09-12T10:52:36;16.83;;;15.23;;
15624;SDS011;7912;51.376;6.126;2023-09-12T10:55:07;15.30;;;13.87;;
15624;SDS011;7912;51.376;6.126;2023-09-12T10:58:04;16.30;;;14.73;;
15624;SDS011;7912;51.376;6.126;2023-09-12T11:00:37;15.87;;;14.43;;
15624;SDS011;7912;51.376;6.126;2023-09-12T11:05:54;14.30;;;12.90;;
15624;SDS011;7912;51.376;6.126;2023-09-12T11:08:23;15.17;;;13.77;;
15624;SDS011;7912;51.376;6.126;2023-09-12T11:14:04;14.50;;;13.20;;
15624;SDS011;7912;51.376;6.126;2023-09-12T11:16:33;13.50;;;12.23;;
15624;SDS011;7912;51.376;6.126;2023-09-12T11:21:53;15.03;;;13.43;;
15624;SDS011;7912;51.376;6.126;2023-09-12T11:24:22;13.63;;;12.47;;
15624;SDS011;7912;51.376;6.126;2023-09-12T11:26:57;16.87;;;15.37;;
15624;SDS011;7912;51.376;6.126;2023-09-12T11:29:36;18.10;;;16.30;;
15624;SDS011;7912;51.376;6.126;2023-09-12T11:32:06;16.73;;;15.20;;
15624;SDS011;7912;51.376;6.126;2023-09-12T11:34:40;15.93;;;14.43;;
15624;SDS011;7912;51.376;6.126;2023-09-12T11:37:09;15.93;;;14.53;;
15624;SDS011;7912;51.376;6.126;2023-09-12T11:39:49;16.60;;;15.13;;
15624;SDS011;7912;51.376;6.126;2023-09-12T11:42:17;17.90;;;16.23;;
15624;SDS011;7912;51.376;6.126;2023-09-12T11:44:54;15.87;;;14.20;;
15624;SDS011;7912;51.376;6.126;2023-09-12T11:47:23;18.47;;;16.73;;
15624;SDS011;7912;51.376;6.126;2023-09-12T11:49:54;20.07;;;18.17;;
15624;SDS011;7912;51.376;6.126;2023-09-12T11:52:22;16.83;;;15.20;;
15624;SDS011;7912;51.376;6.126;2023-09-12T11:54:51;16.37;;;14.87;;
15624;SDS011;7912;51.376;6.126;2023-09-12T11:57:20;15.77;;;14.30;;
15624;SDS011;7912;51.376;6.126;2023-09-12T11:59:48;15.33;;;13.73;;
15624;SDS011;7912;51.376;6.126;2023-09-12T12:02:18;16.77;;;14.67;;
15624;SDS011;7912;51.376;6.126;2023-09-12T12:04:46;14.77;;;13.40;;
15624;SDS011;7912;51.376;6.126;2023-09-12T12:07:14;14.90;;;13.37;;
15624;SDS011;7912;51.376;6.126;2023-09-12T12:09:42;13.10;;;11.93;;
15624;SDS011;7912;51.376;6.126;2023-09-12T12:12:11;15.27;;;13.80;;
15624;SDS011;7912;51.376;6.126;2023-09-12T12:14:40;14.90;;;13.40;;
15624;SDS011;7912;51.376;6.126;2023-09-12T12:17:10;13.00;;;11.87;;
15624;SDS011;7912;51.376;6.126;2023-09-12T12:19:39;12.10;;;11.00;;
15624;SDS011;7912;51.376;6.126;2023-09-12T12:22:12;13.73;;;12.53;;
15624;SDS011;7912;51.376;6.126;2023-09-12T12:24:44;13.70;;;12.50;;
15624;SDS011;7912;51.376;6.126;2023-09-12T12:27:14;13.77;;;12.47;;
15624;SDS011;7912;51.376;6.126;2023-09-12T12:29:42;12.27;;;11.07;;
15624;SDS011;7912;51.376;6.126;2023-09-12T12:32:10;14.83;;;13.43;;
15624;SDS011;7912;51.376;6.126;2023-09-12T12:34:47;12.93;;;11.63;;
15624;SDS011;7912;51.376;6.126;2023-09-12T12:37:39;12.63;;;11.53;;
15624;SDS011;7912;51.376;6.126;2023-09-12T12:40:11;14.13;;;12.93;;
15624;SDS011;7912;51.376;6.126;2023-09-12T12:42:40;15.00;;;13.47;;
15624;SDS011;7912;51.376;6.126;2023-09-12T12:45:21;14.17;;;12.83;;
15624;SDS011;7912;51.376;6.126;2023-09-12T12:47:56;13.63;;;12.33;;
15624;SDS011;7912;51.376;6.126;2023-09-12T12:50:26;14.20;;;13.00;;
15624;SDS011;7912;51.376;6.126;2023-09-12T12:52:56;14.13;;;12.73;;
15624;SDS011;7912;51.376;6.126;2023-09-12T12:55:25;12.47;;;11.40;;
15624;SDS011;7912;51.376;6.126;2023-09-12T12:57:53;13.97;;;12.77;;
15624;SDS011;7912;51.376;6.126;2023-09-12T13:00:20;12.07;;;10.97;;
15624;SDS011;7912;51.376;6.126;2023-09-12T13:02:50;11.80;;;10.80;;
15624;SDS011;7912;51.376;6.126;2023-09-12T13:05:32;12.47;;;11.37;;
15624;SDS011;7912;51.376;6.126;2023-09-12T13:08:24;11.33;;;10.33;;
15624;SDS011;7912;51.376;6.126;2023-09-12T13:10:54;13.00;;;11.73;;
15624;SDS011;7912;51.376;6.126;2023-09-12T13:16:12;10.60;;;9.70;;
15624;SDS011;7912;51.376;6.126;2023-09-12T13:18:41;12.33;;;11.33;;
15624;SDS011;7912;51.376;6.126;2023-09-12T13:23:59;11.67;;;10.57;;
15624;SDS011;7912;51.376;6.126;2023-09-12T13:26:28;11.47;;;10.47;;
15624;SDS011;7912;51.376;6.126;2023-09-12T13:32:01;11.57;;;10.57;;
15624;SDS011;7912;51.376;6.126;2023-09-12T13:34:30;10.67;;;9.63;;
15624;SDS011;7912;51.376;6.126;2023-09-12T13:36:57;11.47;;;10.47;;
15624;SDS011;7912;51.376;6.126;2023-09-12T13:39:37;12.40;;;11.30;;
15624;SDS011;7912;51.376;6.126;2023-09-12T13:42:05;10.83;;;9.93;;
15624;SDS011;7912;51.376;6.126;2023-09-12T13:44:34;10.77;;;9.77;;
15624;SDS011;7912;51.376;6.126;2023-09-12T13:47:02;10.73;;;9.77;;
15624;SDS011;7912;51.376;6.126;2023-09-12T13:49:39;11.13;;;10.03;;
15624;SDS011;7912;51.376;6.126;2023-09-12T13:52:12;11.13;;;10.13;;
15624;SDS011;7912;51.376;6.126;2023-09-12T13:54:41;10.97;;;10.07;;
15624;SDS011;7912;51.376;6.126;2023-09-12T13:57:09;11.40;;;10.37;;
15624;SDS011;7912;51.376;6.126;2023-09-12T13:59:40;11.37;;;10.27;;
15624;SDS011;7912;51.376;6.126;2023-09-12T14:02:12;11.07;;;10.17;;
15624;SDS011;7912;51.376;6.126;2023-09-12T14:04:50;10.13;;;9.30;;
15624;SDS011;7912;51.376;6.126;2023-09-12T14:07:36;11.37;;;10.27;;
15624;SDS011;7912;51.376;6.126;2023-09-12T14:10:16;9.70;;;8.90;;
15624;SDS011;7912;51.376;6.126;2023-09-12T14:12:56;10.20;;;8.97;;
15624;SDS011;7912;51.376;6.126;2023-09-12T14:15:43;10.67;;;9.67;;
15624;SDS011;7912;51.376;6.126;2023-09-12T14:18:10;10.67;;;9.67;;
15624;SDS011;7912;51.376;6.126;2023-09-12T14:20:39;10.73;;;9.73;;
15624;SDS011;7912;51.376;6.126;2023-09-12T14:23:06;10.90;;;9.77;;
15624;SDS011;7912;51.376;6.126;2023-09-12T14:25:34;10.00;;;9.10;;
15624;SDS011;7912;51.376;6.126;2023-09-12T14:28:01;9.73;;;8.83;;
15624;SDS011;7912;51.376;6.126;2023-09-12T14:30:34;10.83;;;9.73;;
15624;SDS011;7912;51.376;6.126;2023-09-12T14:33:02;9.83;;;8.93;;
15624;SDS011;7912;51.376;6.126;2023-09-12T14:35:30;10.13;;;9.23;;
15624;SDS011;7912;51.376;6.126;2023-09-12T14:37:57;10.23;;;9.33;;
15624;SDS011;7912;51.376;6.126;2023-09-12T14:40:25;9.13;;;8.43;;
15624;SDS011;7912;51.376;6.126;2023-09-12T14:42:56;10.23;;;9.33;;
15624;SDS011;7912;51.376;6.126;2023-09-12T14:45:40;10.30;;;9.30;;
15624;SDS011;7912;51.376;6.126;2023-09-12T14:48:13;9.00;;;8.03;;
15624;SDS011;7912;51.376;6.126;2023-09-12T14:51:23;9.73;;;8.83;;
15624;SDS011;7912;51.376;6.126;2023-09-12T14:54:05;9.97;;;9.07;;
15624;SDS011;7912;51.376;6.126;2023-09-12T14:57:04;8.70;;;7.90;;
15624;SDS011;7912;51.376;6.126;2023-09-12T14:59:31;10.30;;;9.40;;
15624;SDS011;7912;51.376;6.126;2023-09-12T15:02:03;9.47;;;8.57;;
15624;SDS011;7912;51.376;6.126;2023-09-12T15:04:40;9.77;;;8.77;;
15624;SDS011;7912;51.376;6.126;2023-09-12T15:07:12;9.47;;;8.43;;
15624;SDS011;7912;51.376;6.126;2023-09-12T15:09:47;10.77;;;9.87;;
15624;SDS011;7912;51.376;6.126;2023-09-12T15:12:21;11.03;;;10.13;;
15624;SDS011;7912;51.376;6.126;2023-09-12T15:15:08;11.00;;;10.00;;
15624;SDS011;7912;51.376;6.126;2023-09-12T15:17:49;10.77;;;9.77;;
15624;SDS011;7912;51.376;6.126;2023-09-12T15:20:34;11.00;;;9.83;;
15624;SDS011;7912;51.376;6.126;2023-09-12T15:23:01;10.40;;;9.37;;
15624;SDS011;7912;51.376;6.126;2023-09-12T15:25:34;10.00;;;9.10;;
15624;SDS011;7912;51.376;6.126;2023-09-12T15:28:02;11.50;;;10.33;;
15624;SDS011;7912;51.376;6.126;2023-09-12T15:30:33;10.40;;;9.47;;
15624;SDS011;7912;51.376;6.126;2023-09-12T15:33:37;11.17;;;10.13;;
15624;SDS011;7912;51.376;6.126;2023-09-12T15:36:08;10.27;;;9.27;;
15624;SDS011;7912;51.376;6.126;2023-09-12T15:38:38;9.90;;;8.97;;
15624;SDS011;7912;51.376;6.126;2023-09-12T15:41:08;10.00;;;9.00;;
15624;SDS011;7912;51.376;6.126;2023-09-12T15:43:38;9.37;;;8.57;;
15624;SDS011;7912;51.376;6.126;2023-09-12T15:46:10;10.70;;;9.80;;
15624;SDS011;7912;51.376;6.126;2023-09-12T15:48:59;10.93;;;9.97;;
15624;SDS011;7912;51.376;6.126;2023-09-12T15:51:30;10.77;;;9.80;;
15624;SDS011;7912;51.376;6.126;2023-09-12T15:57:11;9.70;;;8.83;;
15624;SDS011;7912;51.376;6.126;2023-09-12T15:59:40;9.47;;;8.67;;
15624;SDS011;7912;51.376;6.126;2023-09-12T16:02:08;9.20;;;8.40;;
15624;SDS011;7912;51.376;6.126;2023-09-12T16:04:40;9.70;;;8.83;;
15624;SDS011;7912;51.376;6.126;2023-09-12T16:07:08;9.33;;;8.43;;
15624;SDS011;7912;51.376;6.126;2023-09-12T16:09:37;10.17;;;9.20;;
15624;SDS011;7912;51.376;6.126;2023-09-12T16:12:06;10.00;;;9.20;;
15624;SDS011;7912;51.376;6.126;2023-09-12T16:14:36;9.97;;;9.07;;
15624;SDS011;7912;51.376;6.126;2023-09-12T16:17:13;9.50;;;8.80;;
15624;SDS011;7912;51.376;6.126;2023-09-12T16:19:48;9.73;;;8.73;;
15624;SDS011;7912;51.376;6.126;2023-09-12T16:22:28;9.83;;;8.97;;
15624;SDS011;7912;51.376;6.126;2023-09-12T16:25:29;9.20;;;8.40;;
15624;SDS011;7912;51.376;6.126;2023-09-12T16:28:28;9.70;;;8.83;;
15624;SDS011;7912;51.376;6.126;2023-09-12T16:31:52;9.93;;;8.93;;
15624;SDS011;7912;51.376;6.126;2023-09-12T16:34:53;9.27;;;8.47;;
15624;SDS011;7912;51.376;6.126;2023-09-12T16:38:01;9.20;;;8.37;;
15624;SDS011;7912;51.376;6.126;2023-09-12T16:40:51;8.70;;;7.90;;
15624;SDS011;7912;51.376;6.126;2023-09-12T16:44:07;9.27;;;8.47;;
15624;SDS011;7912;51.376;6.126;2023-09-12T16:46:53;9.27;;;8.37;;
15624;SDS011;7912;51.376;6.126;2023-09-12T16:53:12;10.37;;;9.40;;
15624;SDS011;7912;51.376;6.126;2023-09-12T16:56:14;10.17;;;9.27;;
15624;SDS011;7912;51.376;6.126;2023-09-12T16:59:15;10.83;;;9.67;;
15624;SDS011;7912;51.376;6.126;2023-09-12T17:02:12;10.27;;;9.20;;
15624;SDS011;7912;51.376;6.126;2023-09-12T17:07:41;11.13;;;10.03;;
15624;SDS011;7912;51.376;6.126;2023-09-12T17:10:27;10.80;;;9.77;;
15624;SDS011;7912;51.376;6.126;2023-09-12T17:13:04;10.27;;;9.40;;
15624;SDS011;7912;51.376;6.126;2023-09-12T17:15:43;9.87;;;8.97;;
15624;SDS011;7912;51.376;6.126;2023-09-12T17:18:19;9.93;;;8.93;;
15624;SDS011;7912;51.376;6.126;2023-09-12T17:21:15;9.17;;;8.47;;
15624;SDS011;7912;51.376;6.126;2023-09-12T17:24:05;9.60;;;8.80;;
15624;SDS011;7912;51.376;6.126;2023-09-12T17:26:49;10.50;;;9.57;;
15624;SDS011;7912;51.376;6.126;2023-09-12T17:29:26;10.30;;;9.40;;
15624;SDS011;7912;51.376;6.126;2023-09-12T17:31:55;8.87;;;8.10;;
15624;SDS011;7912;51.376;6.126;2023-09-12T17:34:45;11.03;;;9.93;;
15624;SDS011;7912;51.376;6.126;2023-09-12T17:37:17;10.60;;;9.60;;
15624;SDS011;7912;51.376;6.126;2023-09-12T17:39:54;10.00;;;9.00;;
15624;SDS011;7912;51.376;6.126;2023-09-12T17:42:26;9.63;;;8.73;;
15624;SDS011;7912;51.376;6.126;2023-09-12T17:44:54;9.40;;;8.60;;
15624;SDS011;7912;51.376;6.126;2023-09-12T17:47:22;10.27;;;9.37;;
15624;SDS011;7912;51.376;6.126;2023-09-12T17:49:50;9.97;;;9.07;;
15624;SDS011;7912;51.376;6.126;2023-09-12T17:52:18;10.07;;;9.07;;
15624;SDS011;7912;51.376;6.126;2023-09-12T17:54:46;10.47;;;9.37;;